createdAt,value
2023-05-23T00:01:18.526Z,16.65
2023-05-23T00:03:45.476Z,16.59
2023-05-23T00:06:12.309Z,16.52
2023-05-23T00:08:38.944Z,16.48
2023-05-23T00:11:05.614Z,16.51
2023-05-23T00:13:34.906Z,16.43
2023-05-23T00:16:02.642Z,16.44
2023-05-23T00:18:30.683Z,16.46
2023-05-23T00:20:57.595Z,16.44
2023-05-23T00:23:25.443Z,16.41
2023-05-23T00:25:53.487Z,16.46
2023-05-23T00:28:20.472Z,16.46
2023-05-23T00:30:49.194Z,16.42
2023-05-23T00:33:22.013Z,16.41
2023-05-23T00:35:49.283Z,16.27
2023-05-23T00:38:16.865Z,16.31
2023-05-23T00:40:43.603Z,16.29
2023-05-23T00:43:10.513Z,16.32
2023-05-23T00:45:37.099Z,16.35
2023-05-23T00:48:04.928Z,16.32
2023-05-23T00:50:31.779Z,16.30
2023-05-23T00:53:00.568Z,16.31
2023-05-23T00:55:28.600Z,16.25
2023-05-23T00:57:57.302Z,16.31
2023-05-23T01:00:25.460Z,16.26
2023-05-23T01:02:53.639Z,16.32
2023-05-23T01:05:22.899Z,16.34
2023-05-23T01:07:50.456Z,16.33
2023-05-23T01:10:21.427Z,16.36
2023-05-23T01:13:27.032Z,16.37
2023-05-23T01:16:16.894Z,16.32
2023-05-23T01:18:48.234Z,16.36
2023-05-23T01:21:18.938Z,16.34
2023-05-23T01:24:05.087Z,16.47
2023-05-23T01:26:48.372Z,16.44
2023-05-23T01:29:24.456Z,16.39
2023-05-23T01:31:56.885Z,16.51
2023-05-23T01:34:23.909Z,16.48
2023-05-23T01:36:55.495Z,16.45
2023-05-23T01:39:23.099Z,16.42
2023-05-23T01:41:51.520Z,16.32
2023-05-23T01:44:20.854Z,16.20
2023-05-23T01:46:48.811Z,16.19
2023-05-23T01:49:17.363Z,16.10
2023-05-23T01:51:44.293Z,15.99
2023-05-23T01:54:11.630Z,15.90
2023-05-23T01:56:38.815Z,15.79
2023-05-23T01:59:05.584Z,15.84
2023-05-23T02:01:34.892Z,15.72
2023-05-23T02:04:01.668Z,15.67
2023-05-23T02:06:28.253Z,15.65
2023-05-23T02:08:54.848Z,15.57
2023-05-23T02:11:22.633Z,15.54
2023-05-23T02:13:49.318Z,15.55
2023-05-23T02:16:15.977Z,15.53
2023-05-23T02:18:42.593Z,15.52
2023-05-23T02:21:09.289Z,15.45
2023-05-23T02:23:35.984Z,15.45
2023-05-23T02:26:02.626Z,15.41
2023-05-23T02:28:29.312Z,15.39
2023-05-23T02:30:56.170Z,15.38
2023-05-23T02:33:22.902Z,15.58
2023-05-23T02:35:51.527Z,15.58
2023-05-23T02:38:19.935Z,15.28
2023-05-23T02:40:46.683Z,15.37
2023-05-23T02:43:13.315Z,15.34
2023-05-23T02:45:40.135Z,15.40
2023-05-23T02:48:06.911Z,15.39
2023-05-23T02:50:33.949Z,15.41
2023-05-23T02:53:00.620Z,15.36
2023-05-23T02:55:27.776Z,15.37
2023-05-23T02:57:54.388Z,15.27
2023-05-23T03:00:21.352Z,15.24
2023-05-23T03:02:48.079Z,15.23
2023-05-23T03:05:14.707Z,15.15
2023-05-23T03:07:41.313Z,15.12
2023-05-23T03:10:08.566Z,15.15
2023-05-23T03:12:35.464Z,15.06
2023-05-23T03:15:02.125Z,15.13
2023-05-23T03:17:28.859Z,15.12
2023-05-23T03:19:55.907Z,15.05
2023-05-23T03:22:22.961Z,15.08
2023-05-23T03:24:49.567Z,15.10
2023-05-23T03:27:16.199Z,15.04
2023-05-23T03:29:42.849Z,15.14
2023-05-23T03:32:09.552Z,15.16
2023-05-23T03:34:36.635Z,15.16
2023-05-23T03:37:03.280Z,15.29
2023-05-23T03:39:29.894Z,15.32
2023-05-23T03:41:56.587Z,15.35
2023-05-23T03:44:23.223Z,15.39
2023-05-23T03:46:49.822Z,15.43
2023-05-23T03:49:16.402Z,15.52
2023-05-23T03:51:42.967Z,15.53
2023-05-23T03:54:09.572Z,15.54
2023-05-23T03:56:36.180Z,15.69
2023-05-23T03:59:02.814Z,15.82
2023-05-23T04:01:29.393Z,15.87
2023-05-23T04:03:56.089Z,15.68
2023-05-23T04:06:23.253Z,15.75
2023-05-23T04:08:49.826Z,15.86
2023-05-23T04:11:16.979Z,15.93
2023-05-23T04:13:43.911Z,16.13
2023-05-23T04:16:10.974Z,16.10
2023-05-23T04:18:39.326Z,16.18
2023-05-23T04:21:06.239Z,16.19
2023-05-23T04:23:33.032Z,16.17
2023-05-23T04:26:00.477Z,16.22
2023-05-23T04:28:27.962Z,16.29
2023-05-23T04:30:54.837Z,16.37
2023-05-23T04:33:21.959Z,16.41
2023-05-23T04:35:49.486Z,16.49
2023-05-23T04:38:17.244Z,16.54
2023-05-23T04:40:43.851Z,16.58
2023-05-23T04:43:14.452Z,16.65
2023-05-23T04:45:41.891Z,16.81
2023-05-23T04:48:08.768Z,16.89
2023-05-23T04:50:36.094Z,16.96
2023-05-23T04:53:02.806Z,17.02
2023-05-23T04:55:29.591Z,17.11
2023-05-23T04:57:56.441Z,17.19
2023-05-23T05:00:23.661Z,17.26
2023-05-23T05:02:50.362Z,17.35
2023-05-23T05:05:17.157Z,17.43
2023-05-23T05:07:43.779Z,17.53
2023-05-23T05:10:16.995Z,17.59
2023-05-23T05:12:49.611Z,17.62
2023-05-23T05:15:17.530Z,17.60
2023-05-23T05:17:44.780Z,17.71
2023-05-23T05:20:12.236Z,17.68
2023-05-23T05:22:40.525Z,17.75
2023-05-23T05:25:08.435Z,17.83
2023-05-23T05:27:35.380Z,17.86
2023-05-23T05:30:05.142Z,17.96
2023-05-23T05:32:33.755Z,18.15
2023-05-23T05:35:04.132Z,18.28
2023-05-23T05:37:31.048Z,18.31
2023-05-23T05:39:57.714Z,18.39
2023-05-23T05:42:24.408Z,18.48
2023-05-23T05:44:51.072Z,18.60
2023-05-23T05:47:17.699Z,18.70
2023-05-23T05:49:44.323Z,18.81
2023-05-23T05:52:10.953Z,18.87
2023-05-23T05:54:37.798Z,18.92
2023-05-23T05:57:04.674Z,19.01
2023-05-23T05:59:32.646Z,19.07
2023-05-23T06:01:59.509Z,19.23
2023-05-23T06:04:26.336Z,19.55
2023-05-23T06:06:53.035Z,20.01
2023-05-23T06:09:20.072Z,20.44
2023-05-23T06:11:46.973Z,21.01
2023-05-23T06:14:13.680Z,21.11
2023-05-23T06:16:41.094Z,20.90
2023-05-23T06:19:08.639Z,20.87
2023-05-23T06:21:36.291Z,20.73
2023-05-23T06:24:05.735Z,20.58
2023-05-23T06:26:33.596Z,20.32
2023-05-23T06:29:00.234Z,20.18
2023-05-23T06:31:26.963Z,20.11
2023-05-23T06:33:54.524Z,19.99
2023-05-23T06:36:21.189Z,19.89
2023-05-23T06:38:48.167Z,19.72
2023-05-23T06:41:14.762Z,19.74
2023-05-23T06:43:41.420Z,19.85
2023-05-23T06:46:08.283Z,19.87
2023-05-23T06:48:34.874Z,19.96
2023-05-23T06:51:01.491Z,19.96
2023-05-23T06:53:28.154Z,20.14
2023-05-23T06:55:54.788Z,20.28
2023-05-23T06:58:22.658Z,20.62
2023-05-23T07:00:49.329Z,21.28
2023-05-23T07:03:16.717Z,21.74
2023-05-23T07:05:43.422Z,21.79
2023-05-23T07:08:11.408Z,21.57
2023-05-23T07:10:41.474Z,21.81
2023-05-23T07:13:08.596Z,21.90
2023-05-23T07:15:35.229Z,22.73
2023-05-23T07:18:02.000Z,23.20
2023-05-23T07:20:28.617Z,23.36
2023-05-23T07:22:55.311Z,23.64
2023-05-23T07:25:23.531Z,24.07
2023-05-23T07:27:50.743Z,24.34
2023-05-23T07:30:17.416Z,24.37
2023-05-23T07:32:44.088Z,24.62
2023-05-23T07:35:10.804Z,24.81
2023-05-23T07:37:37.520Z,24.61
2023-05-23T07:40:05.593Z,24.60
2023-05-23T07:42:32.252Z,24.84
2023-05-23T07:44:58.907Z,24.47
2023-05-23T07:47:25.624Z,24.40
2023-05-23T07:49:53.239Z,24.69
2023-05-23T07:52:20.177Z,24.78
2023-05-23T07:54:46.950Z,25.17
2023-05-23T07:57:15.658Z,25.37
2023-05-23T07:59:42.482Z,25.30
2023-05-23T08:02:09.243Z,25.11
2023-05-23T08:04:35.932Z,24.51
2023-05-23T08:07:05.937Z,24.37
2023-05-23T08:09:32.961Z,24.51
2023-05-23T08:11:59.650Z,24.38
2023-05-23T08:14:38.673Z,23.83
2023-05-23T08:17:14.581Z,24.00
2023-05-23T08:19:42.150Z,24.49
2023-05-23T08:22:08.900Z,24.78
2023-05-23T08:24:35.558Z,24.88
2023-05-23T08:27:02.246Z,24.89
2023-05-23T08:29:28.833Z,24.87
2023-05-23T08:31:55.614Z,25.15
2023-05-23T08:34:22.256Z,25.08
2023-05-23T08:36:48.947Z,25.62
2023-05-23T08:39:15.688Z,25.38
2023-05-23T08:41:42.497Z,25.64
2023-05-23T08:44:09.250Z,25.41
2023-05-23T08:46:42.373Z,24.83
2023-05-23T08:49:10.840Z,24.33
2023-05-23T08:51:38.686Z,24.23
2023-05-23T08:54:06.273Z,24.10
2023-05-23T08:56:33.168Z,23.94
2023-05-23T08:58:59.851Z,23.73
2023-05-23T09:01:27.970Z,23.77
2023-05-23T09:03:56.020Z,23.70
2023-05-23T09:06:23.067Z,23.66
2023-05-23T09:08:49.825Z,23.58
2023-05-23T09:11:16.506Z,23.66
2023-05-23T09:13:43.169Z,24.01
2023-05-23T09:16:11.481Z,24.24
2023-05-23T09:18:42.844Z,24.67
2023-05-23T09:21:10.811Z,24.79
2023-05-23T09:23:42.048Z,24.75
2023-05-23T09:26:10.906Z,24.79
2023-05-23T09:28:39.377Z,24.93
2023-05-23T09:31:08.748Z,25.05
2023-05-23T09:33:50.099Z,24.70
2023-05-23T09:36:17.927Z,24.30
2023-05-23T09:38:46.790Z,24.11
2023-05-23T09:41:13.888Z,24.51
2023-05-23T09:43:49.659Z,24.48
2023-05-23T09:46:16.306Z,24.52
2023-05-23T09:48:52.152Z,24.48
2023-05-23T09:51:23.804Z,24.34
2023-05-23T09:53:50.614Z,24.35
2023-05-23T09:56:18.527Z,24.48
2023-05-23T09:58:48.509Z,24.88
2023-05-23T10:01:16.057Z,25.46
2023-05-23T10:03:50.467Z,25.80
2023-05-23T10:06:32.041Z,26.08
2023-05-23T10:09:06.626Z,26.31
2023-05-23T10:11:33.241Z,26.63
2023-05-23T10:14:02.455Z,26.56
2023-05-23T10:16:49.885Z,26.40
2023-05-23T10:19:26.407Z,26.19
2023-05-23T10:22:03.648Z,26.14
2023-05-23T10:24:30.461Z,25.85
2023-05-23T10:26:58.382Z,25.38
2023-05-23T10:29:26.778Z,24.91
2023-05-23T10:31:54.947Z,24.86
2023-05-23T10:34:27.600Z,24.70
2023-05-23T10:37:07.856Z,24.71
2023-05-23T10:39:52.735Z,24.82
2023-05-23T10:42:34.170Z,24.76
2023-05-23T10:45:21.173Z,24.81
2023-05-23T10:47:49.764Z,24.82
2023-05-23T10:50:41.733Z,24.79
2023-05-23T10:53:11.425Z,24.67
2023-05-23T10:55:38.250Z,24.58
2023-05-23T10:58:12.015Z,24.58
2023-05-23T11:00:39.101Z,24.42
2023-05-23T11:03:09.181Z,24.46
2023-05-23T11:05:38.818Z,24.84
2023-05-23T11:08:10.444Z,24.97
2023-05-23T11:11:02.460Z,25.01
2023-05-23T11:13:55.499Z,25.44
2023-05-23T11:16:32.767Z,25.51
2023-05-23T11:19:18.138Z,25.85
2023-05-23T11:21:45.984Z,25.57
2023-05-23T11:24:12.868Z,25.53
2023-05-23T11:26:39.503Z,25.36
2023-05-23T11:29:09.943Z,25.16
2023-05-23T11:31:40.669Z,24.99
2023-05-23T11:34:07.696Z,25.12
2023-05-23T11:36:35.536Z,25.44
2023-05-23T11:39:03.947Z,26.06
2023-05-23T11:41:31.090Z,26.51
2023-05-23T11:43:59.866Z,26.75
2023-05-23T11:46:26.988Z,26.96
2023-05-23T11:48:55.078Z,26.93
2023-05-23T11:51:22.142Z,26.80
2023-05-23T11:53:49.022Z,27.23
2023-05-23T11:56:16.805Z,27.39
2023-05-23T11:58:45.383Z,27.08
2023-05-23T12:01:13.792Z,27.09
2023-05-23T12:03:48.591Z,27.55
2023-05-23T12:06:16.668Z,27.55
2023-05-23T12:08:43.334Z,27.70
2023-05-23T12:11:10.743Z,27.11
2023-05-23T12:13:37.591Z,26.36
2023-05-23T12:16:04.858Z,26.05
2023-05-23T12:18:33.289Z,25.77
2023-05-23T12:21:01.480Z,25.58
2023-05-23T12:23:28.569Z,25.44
2023-05-23T12:25:56.384Z,25.96
2023-05-23T12:28:38.244Z,26.68
2023-05-23T12:31:14.132Z,26.87
2023-05-23T12:33:44.110Z,26.75
2023-05-23T12:36:14.790Z,26.78
2023-05-23T12:38:45.615Z,26.82
2023-05-23T12:41:20.307Z,26.81
2023-05-23T12:43:54.480Z,26.89
2023-05-23T12:46:22.630Z,26.83
2023-05-23T12:48:50.023Z,26.37
2023-05-23T12:51:17.314Z,26.00
2023-05-23T12:53:44.724Z,25.81
2023-05-23T12:56:11.812Z,25.75
2023-05-23T12:58:38.970Z,25.65
2023-05-23T13:01:05.738Z,25.51
2023-05-23T13:03:32.411Z,25.64
2023-05-23T13:05:59.850Z,25.30
2023-05-23T13:08:27.601Z,25.11
2023-05-23T13:10:54.489Z,25.22
2023-05-23T13:13:21.371Z,25.26
2023-05-23T13:15:50.641Z,25.08
2023-05-23T13:18:18.155Z,25.07
2023-05-23T13:20:44.958Z,25.14
2023-05-23T13:23:11.626Z,25.21
2023-05-23T13:25:38.479Z,25.17
2023-05-23T13:28:05.170Z,25.06
2023-05-23T13:30:32.255Z,24.97
2023-05-23T13:32:59.020Z,24.87
2023-05-23T13:35:25.735Z,24.74
2023-05-23T13:37:52.357Z,24.79
2023-05-23T13:40:20.820Z,24.88
2023-05-23T13:42:51.188Z,24.87
2023-05-23T13:45:18.887Z,24.64
2023-05-23T13:47:46.354Z,24.55
2023-05-23T13:50:13.212Z,24.46
2023-05-23T13:52:42.892Z,24.58
2023-05-23T13:55:11.175Z,24.58
2023-05-23T13:57:37.843Z,24.69
2023-05-23T14:00:05.555Z,24.54
2023-05-23T14:02:32.404Z,24.36
2023-05-23T14:04:59.135Z,24.41
2023-05-23T14:07:25.860Z,24.38
2023-05-23T14:09:52.515Z,24.42
2023-05-23T14:12:19.184Z,24.37
2023-05-23T14:14:45.801Z,24.38
2023-05-23T14:17:16.704Z,24.56
2023-05-23T14:19:43.892Z,24.34
2023-05-23T14:22:11.358Z,24.33
2023-05-23T14:24:38.095Z,24.41
2023-05-23T14:27:05.263Z,24.37
2023-05-23T14:29:31.885Z,24.35
2023-05-23T14:32:00.924Z,24.21
2023-05-23T14:34:28.826Z,24.34
2023-05-23T14:36:55.768Z,24.22
2023-05-23T14:39:22.370Z,24.15
2023-05-23T14:41:49.173Z,24.02
2023-05-23T14:44:15.971Z,23.91
2023-05-23T14:46:48.426Z,23.62
2023-05-23T14:49:18.447Z,23.56
2023-05-23T14:51:50.344Z,23.59
2023-05-23T14:54:18.620Z,23.67
2023-05-23T14:56:45.628Z,23.70
2023-05-23T14:59:12.404Z,23.66
2023-05-23T15:01:40.414Z,23.62
2023-05-23T15:04:09.300Z,23.65
2023-05-23T15:06:37.148Z,23.59
2023-05-23T15:09:04.298Z,23.63
2023-05-23T15:11:32.213Z,23.59
2023-05-23T15:13:59.721Z,23.54
2023-05-23T15:16:26.740Z,23.45
2023-05-23T15:18:53.502Z,23.46
2023-05-23T15:21:20.341Z,23.47
2023-05-23T15:23:46.965Z,23.37
2023-05-23T15:26:13.691Z,23.36
2023-05-23T15:28:40.346Z,23.39
2023-05-23T15:31:06.949Z,23.47
2023-05-23T15:33:33.644Z,23.46
2023-05-23T15:36:00.443Z,23.44
2023-05-23T15:38:27.129Z,23.48
2023-05-23T15:40:54.717Z,23.40
2023-05-23T15:43:21.453Z,23.40
2023-05-23T15:45:51.165Z,23.35
2023-05-23T15:48:17.926Z,23.35
2023-05-23T15:50:44.778Z,23.34
2023-05-23T15:53:11.553Z,23.28
2023-05-23T15:55:40.589Z,23.25
2023-05-23T15:58:09.675Z,23.21
2023-05-23T16:00:36.571Z,23.22
2023-05-23T16:03:03.296Z,23.11
2023-05-23T16:05:30.158Z,23.07
2023-05-23T16:07:56.959Z,23.09
2023-05-23T16:10:24.749Z,22.98
2023-05-23T16:12:51.639Z,22.98
2023-05-23T16:15:18.484Z,23.01
2023-05-23T16:17:45.238Z,23.06
2023-05-23T16:20:12.182Z,23.04
2023-05-23T16:22:38.956Z,22.97
2023-05-23T16:25:06.848Z,22.81
2023-05-23T16:27:33.829Z,22.77
2023-05-23T16:30:00.923Z,22.80
2023-05-23T16:32:30.621Z,22.78
2023-05-23T16:34:57.260Z,22.78
2023-05-23T16:37:23.872Z,22.77
2023-05-23T16:39:50.534Z,22.59
2023-05-23T16:42:17.975Z,22.57
2023-05-23T16:44:45.287Z,22.32
2023-05-23T16:47:12.018Z,22.00
2023-05-23T16:49:38.765Z,21.78
2023-05-23T16:52:05.485Z,21.52
2023-05-23T16:54:32.112Z,21.36
2023-05-23T16:57:01.900Z,21.10
2023-05-23T16:59:29.982Z,21.01
2023-05-23T17:01:57.084Z,20.93
2023-05-23T17:04:24.080Z,20.89
2023-05-23T17:06:51.137Z,20.78
2023-05-23T17:09:18.276Z,20.81
2023-05-23T17:11:45.464Z,20.79
2023-05-23T17:14:12.836Z,20.73
2023-05-23T17:16:39.778Z,20.72
2023-05-23T17:19:07.547Z,20.69
2023-05-23T17:21:34.284Z,20.64
2023-05-23T17:24:00.918Z,20.59
2023-05-23T17:26:27.729Z,20.64
2023-05-23T17:28:54.352Z,20.57
2023-05-23T17:31:21.561Z,20.52
2023-05-23T17:33:48.248Z,20.43
2023-05-23T17:36:14.964Z,20.39
2023-05-23T17:38:41.911Z,20.42
2023-05-23T17:41:08.640Z,20.35
2023-05-23T17:43:35.367Z,20.31
2023-05-23T17:46:02.033Z,20.32
2023-05-23T17:48:45.920Z,20.29
2023-05-23T17:51:14.330Z,20.22
2023-05-23T17:53:41.838Z,20.16
2023-05-23T17:56:09.447Z,20.08
2023-05-23T17:58:37.561Z,20.07
2023-05-23T18:01:05.243Z,19.98
2023-05-23T18:03:32.245Z,20.02
2023-05-23T18:05:58.883Z,19.94
2023-05-23T18:08:25.544Z,19.93
2023-05-23T18:10:52.564Z,19.89
2023-05-23T18:13:19.180Z,19.89
2023-05-23T18:15:45.840Z,19.83
2023-05-23T18:18:12.691Z,19.78
2023-05-23T18:20:39.790Z,19.76
2023-05-23T18:23:06.672Z,19.76
2023-05-23T18:25:33.520Z,19.73
2023-05-23T18:28:01.807Z,19.62
2023-05-23T18:30:29.138Z,19.66
2023-05-23T18:32:56.197Z,19.62
2023-05-23T18:35:22.881Z,19.61
2023-05-23T18:37:49.497Z,19.62
2023-05-23T18:40:16.169Z,19.64
2023-05-23T18:42:42.845Z,19.64
2023-05-23T18:45:10.111Z,19.62
2023-05-23T18:47:36.853Z,19.59
2023-05-23T18:50:03.620Z,19.53
2023-05-23T18:52:30.852Z,19.53
2023-05-23T18:54:57.591Z,19.52
2023-05-23T18:57:24.240Z,19.54
2023-05-23T18:59:51.625Z,19.49
2023-05-23T19:02:18.368Z,19.46
2023-05-23T19:04:44.995Z,19.56
2023-05-23T19:07:11.622Z,19.55
2023-05-23T19:09:38.315Z,19.49
2023-05-23T19:12:05.132Z,19.34
2023-05-23T19:14:31.852Z,19.22
2023-05-23T19:17:00.001Z,19.25
2023-05-23T19:19:29.298Z,19.17
2023-05-23T19:21:58.204Z,19.01
2023-05-23T19:24:24.888Z,18.88
2023-05-23T19:26:51.517Z,18.76
2023-05-23T19:29:18.103Z,18.72
2023-05-23T19:31:44.845Z,18.58
2023-05-23T19:34:12.100Z,18.63
2023-05-23T19:36:38.828Z,18.45
2023-05-23T19:39:05.455Z,18.37
2023-05-23T19:41:34.994Z,18.31
2023-05-23T19:44:01.840Z,18.28
2023-05-23T19:46:29.068Z,18.16
2023-05-23T19:48:57.832Z,18.08
2023-05-23T19:51:29.127Z,18.05
2023-05-23T19:53:55.917Z,17.84
2023-05-23T19:56:22.971Z,17.80
2023-05-23T19:58:49.581Z,17.69
2023-05-23T20:01:16.255Z,17.68
2023-05-23T20:03:43.049Z,17.64
2023-05-23T20:06:09.874Z,17.62
2023-05-23T20:08:36.548Z,17.65
2023-05-23T20:11:03.222Z,17.57
2023-05-23T20:13:30.360Z,17.50
2023-05-23T20:15:57.044Z,17.39
2023-05-23T20:18:23.733Z,17.31
2023-05-23T20:20:50.646Z,17.31
2023-05-23T20:23:17.560Z,17.19
2023-05-23T20:25:44.263Z,17.19
2023-05-23T20:28:11.206Z,17.11
2023-05-23T20:30:37.854Z,17.12
2023-05-23T20:33:04.658Z,17.08
2023-05-23T20:35:31.415Z,17.02
2023-05-23T20:37:58.632Z,17.00
2023-05-23T20:40:27.033Z,16.99
2023-05-23T20:42:53.647Z,16.98
2023-05-23T20:45:20.332Z,17.03
2023-05-23T20:47:47.451Z,17.00
2023-05-23T20:50:14.922Z,16.97
2023-05-23T20:52:43.164Z,16.98
2023-05-23T20:55:10.889Z,16.95
2023-05-23T20:57:37.757Z,16.89
2023-05-23T21:00:12.621Z,16.93
2023-05-23T21:02:40.607Z,16.85
2023-05-23T21:05:08.152Z,16.85
2023-05-23T21:07:34.850Z,16.78
2023-05-23T21:10:01.667Z,16.79
2023-05-23T21:12:28.937Z,16.76
2023-05-23T21:14:58.619Z,16.80
2023-05-23T21:17:25.726Z,16.71
2023-05-23T21:19:52.482Z,16.71
2023-05-23T21:22:19.115Z,16.68
2023-05-23T21:24:45.942Z,16.68
2023-05-23T21:27:12.761Z,16.60
2023-05-23T21:29:39.376Z,16.59
2023-05-23T21:32:06.047Z,16.60
2023-05-23T21:34:32.675Z,16.64
2023-05-23T21:36:59.328Z,16.65
2023-05-23T21:39:28.832Z,16.66
2023-05-23T21:41:59.995Z,16.58
2023-05-23T21:44:26.632Z,16.51
2023-05-23T21:46:53.331Z,16.41
2023-05-23T21:49:20.022Z,16.46
2023-05-23T21:51:46.609Z,16.46
2023-05-23T21:54:13.341Z,16.35
2023-05-23T21:56:39.944Z,16.33
2023-05-23T21:59:06.574Z,16.32
2023-05-23T22:01:33.447Z,16.34
2023-05-23T22:04:00.561Z,16.33
2023-05-23T22:06:27.363Z,16.30
2023-05-23T22:08:54.355Z,16.32
2023-05-23T22:11:21.733Z,16.34
2023-05-23T22:13:48.375Z,16.37
2023-05-23T22:16:15.121Z,16.31
2023-05-23T22:18:51.612Z,16.25
2023-05-23T22:21:18.963Z,16.23
2023-05-23T22:23:45.845Z,16.10
2023-05-23T22:26:12.868Z,16.08
2023-05-23T22:28:39.714Z,16.08
2023-05-23T22:31:06.782Z,16.10
2023-05-23T22:33:33.460Z,16.05
2023-05-23T22:36:00.164Z,16.00
2023-05-23T22:38:26.854Z,16.01
2023-05-23T22:40:53.561Z,15.97
2023-05-23T22:43:21.892Z,15.97
2023-05-23T22:45:50.208Z,15.97
2023-05-23T22:48:19.404Z,15.93
2023-05-23T22:50:46.750Z,15.93
2023-05-23T22:53:15.407Z,15.95
2023-05-23T22:55:42.779Z,15.94
2023-05-23T22:58:09.406Z,15.83
2023-05-23T23:00:36.701Z,15.80
2023-05-23T23:03:03.898Z,15.93
2023-05-23T23:05:30.784Z,15.87
2023-05-23T23:07:57.476Z,15.82
2023-05-23T23:10:24.141Z,15.78
2023-05-23T23:12:51.006Z,15.70
2023-05-23T23:15:17.793Z,15.70
2023-05-23T23:17:45.036Z,15.74
2023-05-23T23:20:12.854Z,15.73
2023-05-23T23:22:39.590Z,15.70
2023-05-23T23:25:10.690Z,15.77
2023-05-23T23:27:38.371Z,15.75
2023-05-23T23:30:08.749Z,15.79
2023-05-23T23:32:35.630Z,15.80
2023-05-23T23:35:02.258Z,15.78
2023-05-23T23:37:28.895Z,15.73
2023-05-23T23:39:55.621Z,15.78
2023-05-23T23:42:22.258Z,15.70
2023-05-23T23:44:48.960Z,15.74
2023-05-23T23:47:15.634Z,15.76
2023-05-23T23:49:42.478Z,15.93
2023-05-23T23:52:09.241Z,15.90
2023-05-23T23:54:36.111Z,15.69
2023-05-23T23:57:02.914Z,15.69
2023-05-23T23:59:29.639Z,15.72
